createdAt,value
2022-08-16T00:01:57.277Z,26.70
2022-08-16T00:04:01.743Z,25.67
2022-08-16T00:06:07.062Z,26.39
2022-08-16T00:08:09.111Z,26.21
2022-08-16T00:10:33.315Z,26.65
2022-08-16T00:12:35.247Z,26.78
2022-08-16T00:14:36.930Z,26.75
2022-08-16T00:17:00.657Z,26.57
2022-08-16T00:19:01.251Z,26.77
2022-08-16T00:21:04.357Z,26.66
2022-08-16T00:23:06.750Z,26.62
2022-08-16T00:25:16.667Z,26.78
2022-08-16T00:27:18.393Z,26.69
2022-08-16T00:29:20.259Z,26.77
2022-08-16T00:31:24.187Z,26.63
2022-08-16T00:33:26.151Z,26.78
2022-08-16T00:35:31.171Z,26.65
2022-08-16T00:37:57.806Z,26.39
2022-08-16T00:39:58.766Z,26.83
2022-08-16T00:42:00.679Z,26.47
2022-08-16T00:44:11.048Z,26.65
2022-08-16T00:46:34.852Z,26.83
2022-08-16T00:48:43.833Z,26.53
2022-08-16T00:50:46.493Z,26.37
2022-08-16T00:52:51.328Z,26.75
2022-08-16T00:54:53.394Z,26.52
2022-08-16T00:56:59.636Z,26.13
2022-08-16T00:59:02.432Z,26.44
2022-08-16T01:01:08.832Z,26.10
2022-08-16T01:03:14.678Z,26.41
2022-08-16T01:05:16.591Z,25.58
2022-08-16T01:07:20.152Z,26.04
2022-08-16T01:09:22.895Z,26.43
2022-08-16T01:11:26.011Z,26.61
2022-08-16T01:13:31.469Z,25.60
2022-08-16T01:15:36.167Z,26.44
2022-08-16T01:17:39.081Z,25.22
2022-08-16T01:19:52.303Z,25.32
2022-08-16T01:22:48.221Z,25.60
2022-08-16T01:24:53.277Z,25.31
2022-08-16T01:27:15.391Z,26.18
2022-08-16T01:29:47.163Z,26.61
2022-08-16T01:31:49.385Z,26.32
2022-08-16T01:33:53.865Z,26.70
2022-08-16T01:36:01.644Z,26.84
2022-08-16T01:38:22.158Z,26.46
2022-08-16T01:40:30.278Z,26.87
2022-08-16T01:42:32.246Z,26.77
2022-08-16T01:44:38.252Z,27.06
2022-08-16T01:46:46.780Z,24.41
2022-08-16T01:48:49.537Z,24.44
2022-08-16T01:51:09.788Z,23.69
2022-08-16T01:53:13.781Z,25.01
2022-08-16T01:55:18.373Z,26.16
2022-08-16T01:57:22.784Z,25.13
2022-08-16T01:59:28.468Z,25.77
2022-08-16T02:01:31.789Z,26.76
2022-08-16T02:03:33.814Z,26.96
2022-08-16T02:05:35.619Z,26.73
2022-08-16T02:07:39.022Z,25.71
2022-08-16T02:09:58.864Z,26.61
2022-08-16T02:12:49.769Z,26.80
2022-08-16T02:14:27.234Z,26.62
2022-08-16T02:16:29.301Z,26.84
2022-08-16T02:18:31.152Z,26.68
2022-08-16T02:20:39.581Z,26.72
2022-08-16T02:22:44.375Z,26.66
2022-08-16T02:24:49.553Z,26.30
2022-08-16T02:26:52.037Z,26.64
2022-08-16T02:28:54.212Z,25.52
2022-08-16T02:30:59.504Z,25.87
2022-08-16T02:33:03.748Z,26.73
2022-08-16T02:35:06.238Z,26.43
2022-08-16T02:37:11.412Z,26.90
2022-08-16T02:39:14.808Z,25.44
2022-08-16T02:41:16.702Z,24.99
2022-08-16T02:43:19.552Z,26.31
2022-08-16T02:45:27.828Z,26.85
2022-08-16T02:47:29.830Z,25.21
2022-08-16T02:49:58.448Z,26.08
2022-08-16T02:51:53.024Z,27.01
2022-08-16T02:53:57.365Z,26.81
2022-08-16T02:55:59.252Z,27.28
2022-08-16T02:58:02.195Z,26.87
2022-08-16T03:00:34.594Z,26.75
2022-08-16T03:02:31.780Z,27.51
2022-08-16T03:04:50.281Z,27.10
2022-08-16T03:06:56.416Z,26.91
2022-08-16T03:08:58.952Z,27.41
2022-08-16T03:11:02.426Z,27.19
2022-08-16T03:13:12.685Z,27.17
2022-08-16T03:15:15.305Z,25.99
2022-08-16T03:17:19.715Z,26.87
2022-08-16T03:19:23.525Z,25.91
2022-08-16T03:21:25.501Z,26.60
2022-08-16T03:23:28.260Z,26.47
2022-08-16T03:25:44.250Z,26.21
2022-08-16T03:27:46.533Z,26.54
2022-08-16T03:29:54.526Z,26.14
2022-08-16T03:31:56.557Z,26.66
2022-08-16T03:34:00.961Z,26.63
2022-08-16T03:36:29.970Z,26.60
2022-08-16T03:38:34.243Z,26.32
2022-08-16T03:40:38.077Z,26.49
2022-08-16T03:43:19.273Z,26.16
2022-08-16T03:45:03.373Z,26.37
2022-08-16T03:47:10.380Z,26.06
2022-08-16T03:49:13.157Z,26.52
2022-08-16T03:51:15.498Z,26.09
2022-08-16T03:53:17.213Z,26.51
2022-08-16T03:55:18.861Z,26.23
2022-08-16T03:57:21.768Z,26.50
2022-08-16T03:59:24.348Z,26.59
2022-08-16T04:01:29.145Z,26.65
2022-08-16T04:03:31.568Z,27.06
2022-08-16T04:05:47.337Z,27.02
2022-08-16T04:07:49.155Z,26.84
2022-08-16T04:09:52.521Z,26.74
2022-08-16T04:11:54.464Z,26.63
2022-08-16T04:14:01.849Z,26.51
2022-08-16T04:16:26.708Z,26.20
2022-08-16T04:18:30.873Z,25.90
2022-08-16T04:20:37.071Z,25.84
2022-08-16T04:22:39.811Z,26.18
2022-08-16T04:24:41.854Z,26.40
2022-08-16T04:26:56.195Z,26.36
2022-08-16T04:29:15.070Z,26.18
2022-08-16T04:31:20.357Z,26.12
2022-08-16T04:33:27.474Z,26.09
2022-08-16T04:35:34.282Z,25.54
2022-08-16T04:37:41.838Z,25.49
2022-08-16T04:39:47.195Z,26.23
2022-08-16T04:41:57.440Z,26.04
2022-08-16T04:44:00.670Z,25.96
2022-08-16T04:46:03.249Z,25.98
2022-08-16T04:48:05.412Z,25.86
2022-08-16T04:50:12.037Z,26.33
2022-08-16T04:52:34.030Z,25.60
2022-08-16T04:54:37.460Z,25.88
2022-08-16T04:56:46.300Z,25.93
2022-08-16T04:58:48.126Z,26.50
2022-08-16T05:00:50.320Z,26.50
2022-08-16T05:02:56.275Z,26.51
2022-08-16T05:05:00.370Z,26.57
2022-08-16T05:07:02.151Z,26.50
2022-08-16T05:09:06.307Z,26.32
2022-08-16T05:11:10.443Z,26.06
2022-08-16T05:13:15.788Z,26.21
2022-08-16T05:15:17.970Z,26.42
2022-08-16T05:17:20.352Z,26.11
2022-08-16T05:19:35.941Z,25.97
2022-08-16T05:21:41.576Z,26.04
2022-08-16T05:23:51.446Z,25.85
2022-08-16T05:25:53.500Z,25.64
2022-08-16T05:27:56.566Z,25.64
2022-08-16T05:30:01.275Z,24.95
2022-08-16T05:32:32.662Z,26.02
2022-08-16T05:34:28.550Z,25.89
2022-08-16T05:36:33.951Z,25.94
2022-08-16T05:38:39.391Z,26.45
2022-08-16T05:40:42.026Z,25.96
2022-08-16T05:42:58.987Z,26.04
2022-08-16T05:45:01.266Z,25.56
2022-08-16T05:47:08.420Z,25.92
2022-08-16T05:49:10.725Z,27.03
2022-08-16T05:51:14.100Z,27.22
2022-08-16T05:53:36.401Z,26.83
2022-08-16T05:55:41.006Z,26.96
2022-08-16T05:57:42.644Z,25.67
2022-08-16T05:59:47.312Z,25.34
2022-08-16T06:01:52.657Z,26.09
2022-08-16T06:03:55.012Z,25.39
2022-08-16T06:06:00.595Z,23.88
2022-08-16T06:08:02.454Z,24.25
2022-08-16T06:10:05.479Z,24.66
2022-08-16T06:12:08.316Z,24.31
2022-08-16T06:14:11.281Z,24.84
2022-08-16T06:16:18.201Z,25.04
2022-08-16T06:18:20.361Z,25.94
2022-08-16T06:20:35.965Z,24.74
2022-08-16T06:22:39.720Z,24.90
2022-08-16T06:24:54.776Z,24.43
2022-08-16T06:26:58.394Z,25.54
2022-08-16T06:29:00.205Z,26.39
2022-08-16T06:31:02.043Z,25.49
2022-08-16T06:33:04.109Z,25.34
2022-08-16T06:35:07.186Z,25.88
2022-08-16T06:37:08.865Z,25.38
2022-08-16T06:39:11.500Z,25.70
2022-08-16T06:41:13.912Z,26.51
2022-08-16T06:43:15.867Z,26.22
2022-08-16T06:45:20.891Z,26.05
2022-08-16T06:47:53.686Z,26.70
2022-08-16T06:49:54.078Z,26.62
2022-08-16T06:52:02.911Z,26.02
2022-08-16T06:54:05.933Z,26.53
2022-08-16T06:56:14.270Z,26.65
2022-08-16T06:58:31.218Z,26.66
2022-08-16T07:00:33.684Z,26.83
2022-08-16T07:02:35.316Z,25.88
2022-08-16T07:04:37.317Z,27.14
2022-08-16T07:06:40.765Z,27.08
2022-08-16T07:08:46.530Z,26.61
2022-08-16T07:10:50.122Z,25.40
2022-08-16T07:13:03.910Z,26.93
2022-08-16T07:15:18.728Z,27.14
2022-08-16T07:17:22.999Z,27.39
2022-08-16T07:20:03.648Z,26.72
2022-08-16T07:21:59.834Z,27.17
2022-08-16T07:24:06.198Z,27.34
2022-08-16T07:26:10.121Z,26.69
2022-08-16T07:28:20.735Z,26.96
2022-08-16T07:30:45.816Z,25.79
2022-08-16T07:32:51.340Z,27.23
2022-08-16T07:34:53.368Z,27.17
2022-08-16T07:36:58.291Z,27.21
2022-08-16T07:39:00.464Z,27.75
2022-08-16T07:41:02.445Z,28.04
2022-08-16T07:43:12.060Z,27.29
2022-08-16T07:45:14.156Z,27.78
2022-08-16T07:47:19.182Z,27.51
2022-08-16T07:49:26.184Z,27.44
2022-08-16T07:51:37.173Z,27.79
2022-08-16T07:53:43.720Z,28.45
2022-08-16T07:55:48.254Z,28.75
2022-08-16T07:58:00.957Z,28.23
2022-08-16T08:00:06.122Z,27.87
2022-08-16T08:02:21.161Z,27.88
2022-08-16T08:04:22.900Z,27.76
2022-08-16T08:06:28.738Z,28.81
2022-08-16T08:08:50.777Z,28.33
2022-08-16T08:10:52.522Z,28.19
2022-08-16T08:12:55.060Z,28.23
2022-08-16T08:15:01.074Z,28.73
2022-08-16T08:17:05.297Z,28.34
2022-08-16T08:19:12.315Z,28.82
2022-08-16T08:21:14.041Z,28.26
2022-08-16T08:23:15.740Z,28.03
2022-08-16T08:25:18.361Z,28.24
2022-08-16T08:27:22.597Z,28.07
2022-08-16T08:29:37.807Z,28.09
2022-08-16T08:31:42.446Z,28.36
2022-08-16T08:33:47.369Z,28.57
2022-08-16T08:35:57.653Z,28.48
2022-08-16T08:38:03.070Z,29.02
2022-08-16T08:40:10.672Z,26.97
2022-08-16T08:42:12.345Z,27.32
2022-08-16T08:44:29.883Z,27.88
2022-08-16T08:46:35.749Z,28.30
2022-08-16T08:48:38.516Z,28.20
2022-08-16T08:50:50.007Z,28.10
2022-08-16T08:52:53.868Z,28.52
2022-08-16T08:54:55.683Z,28.72
2022-08-16T08:56:57.419Z,29.07
2022-08-16T08:59:03.127Z,28.24
2022-08-16T09:01:09.514Z,28.68
2022-08-16T09:03:11.168Z,28.39
2022-08-16T09:05:14.879Z,28.22
2022-08-16T09:07:17.708Z,28.80
2022-08-16T09:09:21.769Z,28.11
2022-08-16T09:11:23.421Z,27.36
2022-08-16T09:13:47.121Z,28.24
2022-08-16T09:15:50.653Z,27.72
2022-08-16T09:17:56.993Z,27.33
2022-08-16T09:20:01.496Z,28.14
2022-08-16T09:22:05.899Z,29.17
2022-08-16T09:24:46.410Z,29.75
2022-08-16T09:26:45.876Z,29.80
2022-08-16T09:29:16.838Z,29.96
2022-08-16T09:31:11.132Z,28.57
2022-08-16T09:33:19.794Z,28.89
2022-08-16T09:35:22.628Z,29.04
2022-08-16T09:37:29.730Z,29.50
2022-08-16T09:39:41.630Z,28.61
2022-08-16T09:41:53.202Z,30.13
2022-08-16T09:43:59.735Z,29.41
2022-08-16T09:46:48.447Z,29.50
2022-08-16T09:48:36.868Z,29.99
2022-08-16T09:50:46.620Z,30.21
2022-08-16T09:52:48.513Z,29.73
2022-08-16T09:54:50.188Z,29.71
2022-08-16T09:56:53.830Z,29.15
2022-08-16T09:59:05.743Z,29.29
2022-08-16T10:01:11.136Z,29.86
2022-08-16T10:03:13.215Z,31.07
2022-08-16T10:05:14.890Z,30.24
2022-08-16T10:07:18.203Z,30.20
2022-08-16T10:09:19.820Z,29.95
2022-08-16T10:11:50.492Z,30.71
2022-08-16T10:13:52.773Z,30.33
2022-08-16T10:15:59.963Z,30.51
2022-08-16T10:18:56.490Z,30.03
2022-08-16T10:20:32.596Z,30.00
2022-08-16T10:22:35.960Z,30.13
2022-08-16T10:24:37.820Z,30.72
2022-08-16T10:27:16.209Z,30.65
2022-08-16T10:29:04.815Z,31.24
2022-08-16T10:31:08.548Z,31.22
2022-08-16T10:33:14.891Z,31.01
2022-08-16T10:35:18.696Z,29.67
2022-08-16T10:37:35.900Z,30.13
2022-08-16T10:39:41.373Z,30.34
2022-08-16T10:41:43.884Z,29.07
2022-08-16T10:43:47.632Z,30.25
2022-08-16T10:46:00.595Z,30.10
2022-08-16T10:48:03.512Z,30.70
2022-08-16T10:50:07.116Z,29.62
2022-08-16T10:52:24.217Z,29.18
2022-08-16T10:54:29.764Z,28.19
2022-08-16T10:56:52.092Z,29.32
2022-08-16T10:59:29.630Z,28.63
2022-08-16T11:03:43.075Z,28.34
2022-08-16T11:06:05.961Z,28.47
2022-08-16T11:08:08.457Z,28.88
2022-08-16T11:11:05.360Z,29.37
2022-08-16T11:12:35.907Z,30.45
2022-08-16T11:14:38.786Z,29.14
2022-08-16T11:19:12.826Z,30.97
2022-08-16T11:21:29.318Z,28.94
2022-08-16T11:23:31.366Z,30.30
2022-08-16T11:27:57.529Z,31.37
2022-08-16T11:30:00.917Z,29.87
2022-08-16T11:32:05.608Z,30.66
2022-08-16T11:34:09.968Z,29.04
2022-08-16T11:36:27.760Z,30.83
2022-08-16T11:38:51.079Z,31.37
2022-08-16T11:40:58.164Z,31.35
2022-08-16T11:43:04.139Z,30.84
2022-08-16T11:45:06.921Z,29.73
2022-08-16T11:47:09.445Z,30.37
2022-08-16T11:49:13.875Z,30.21
2022-08-16T11:51:15.691Z,31.50
2022-08-16T11:53:18.746Z,32.73
2022-08-16T11:55:20.428Z,33.01
2022-08-16T11:57:25.296Z,32.87
2022-08-16T11:59:29.363Z,31.56
2022-08-16T12:01:44.594Z,30.37
2022-08-16T12:03:52.873Z,30.76
2022-08-16T12:05:56.386Z,31.51
2022-08-16T12:07:58.432Z,30.49
2022-08-16T12:10:06.823Z,31.93
2022-08-16T12:12:10.481Z,31.24
2022-08-16T12:14:14.271Z,31.54
2022-08-16T12:16:20.440Z,32.28
2022-08-16T12:18:22.656Z,32.12
2022-08-16T12:20:31.281Z,31.80
2022-08-16T12:22:43.888Z,31.95
2022-08-16T12:24:51.019Z,31.72
2022-08-16T12:26:54.951Z,31.80
2022-08-16T12:28:59.520Z,31.77
2022-08-16T12:31:01.857Z,31.45
2022-08-16T12:33:05.156Z,31.55
2022-08-16T12:35:12.508Z,30.33
2022-08-16T12:37:15.559Z,31.22
2022-08-16T12:39:20.353Z,30.03
2022-08-16T12:41:25.074Z,31.47
2022-08-16T12:43:31.244Z,32.58
2022-08-16T12:45:40.647Z,32.72
2022-08-16T12:48:29.759Z,31.76
2022-08-16T12:50:33.052Z,32.32
2022-08-16T12:52:36.788Z,30.66
2022-08-16T12:54:40.672Z,32.28
2022-08-16T12:56:42.767Z,32.14
2022-08-16T12:58:49.708Z,32.18
2022-08-16T13:00:52.859Z,31.79
2022-08-16T13:02:54.569Z,32.18
2022-08-16T13:04:56.229Z,31.30
2022-08-16T13:06:59.198Z,32.66
2022-08-16T13:09:02.481Z,31.38
2022-08-16T13:11:07.890Z,32.27
2022-08-16T13:13:10.202Z,32.45
2022-08-16T13:15:15.996Z,32.51
2022-08-16T13:17:22.167Z,32.19
2022-08-16T13:19:24.052Z,32.89
2022-08-16T13:21:36.803Z,32.17
2022-08-16T13:23:43.309Z,32.82
2022-08-16T13:25:49.742Z,31.67
2022-08-16T13:28:02.494Z,32.36
2022-08-16T13:30:36.656Z,29.47
2022-08-16T13:32:39.730Z,29.86
2022-08-16T13:34:42.326Z,31.69
2022-08-16T13:36:49.276Z,31.56
2022-08-16T13:38:51.477Z,32.56
2022-08-16T13:40:57.315Z,31.59
2022-08-16T13:42:59.419Z,32.03
2022-08-16T13:45:01.106Z,31.46
2022-08-16T13:47:03.985Z,30.13
2022-08-16T13:49:05.756Z,31.31
2022-08-16T13:51:07.577Z,31.06
2022-08-16T13:53:09.220Z,30.28
2022-08-16T13:55:17.877Z,30.84
2022-08-16T13:57:19.850Z,30.77
2022-08-16T13:59:22.198Z,31.81
2022-08-16T14:01:23.852Z,31.00
2022-08-16T14:03:27.420Z,30.62
2022-08-16T14:05:31.833Z,30.90
2022-08-16T14:07:35.240Z,30.95
2022-08-16T14:09:43.221Z,32.33
2022-08-16T14:11:44.799Z,33.27
2022-08-16T14:13:46.505Z,33.12
2022-08-16T14:15:48.325Z,33.51
2022-08-16T14:18:17.566Z,33.20
2022-08-16T14:20:19.074Z,33.65
2022-08-16T14:22:30.128Z,32.94
2022-08-16T14:24:33.248Z,33.87
2022-08-16T14:26:34.882Z,32.02
2022-08-16T14:28:36.471Z,33.06
2022-08-16T14:30:38.713Z,32.92
2022-08-16T14:32:43.273Z,31.72
2022-08-16T14:34:48.751Z,33.48
2022-08-16T14:36:53.680Z,33.60
2022-08-16T14:38:55.304Z,31.82
2022-08-16T14:40:56.868Z,32.98
2022-08-16T14:42:58.718Z,33.47
2022-08-16T14:45:10.942Z,33.84
2022-08-16T14:47:16.234Z,33.50
2022-08-16T14:49:17.801Z,33.50
2022-08-16T14:51:21.200Z,33.81
2022-08-16T14:53:26.423Z,33.83
2022-08-16T14:55:29.896Z,34.41
2022-08-16T14:57:32.253Z,34.45
2022-08-16T14:59:34.411Z,34.23
2022-08-16T15:01:58.604Z,34.01
2022-08-16T15:04:05.116Z,34.10
2022-08-16T15:06:08.537Z,33.53
2022-08-16T15:08:14.924Z,34.16
2022-08-16T15:10:23.877Z,33.83
2022-08-16T15:12:30.854Z,33.68
2022-08-16T15:14:33.164Z,34.01
2022-08-16T15:16:35.477Z,34.31
2022-08-16T15:18:39.295Z,34.29
2022-08-16T15:20:41.539Z,32.94
2022-08-16T15:22:46.471Z,33.05
2022-08-16T15:24:48.169Z,33.16
2022-08-16T15:26:52.693Z,33.86
2022-08-16T15:28:55.745Z,34.30
2022-08-16T15:31:00.919Z,33.85
2022-08-16T15:33:11.160Z,34.19
2022-08-16T15:35:13.469Z,34.23
2022-08-16T15:37:15.505Z,34.11
2022-08-16T15:39:30.173Z,34.46
2022-08-16T15:41:43.682Z,33.98
2022-08-16T15:43:45.346Z,34.54
2022-08-16T15:46:05.851Z,34.82
2022-08-16T15:48:12.185Z,33.14
2022-08-16T15:50:13.773Z,33.75
2022-08-16T15:52:24.829Z,33.61
2022-08-16T15:54:33.537Z,34.11
2022-08-16T15:56:35.785Z,34.16
2022-08-16T15:58:38.376Z,34.27
2022-08-16T16:00:42.326Z,33.76
2022-08-16T16:02:46.822Z,33.88
2022-08-16T16:04:51.250Z,33.68
2022-08-16T16:06:56.728Z,33.02
2022-08-16T16:09:00.969Z,33.62
2022-08-16T16:11:05.883Z,34.09
2022-08-16T16:13:09.473Z,34.06
2022-08-16T16:15:12.133Z,33.83
2022-08-16T16:17:16.742Z,34.55
2022-08-16T16:19:21.111Z,34.57
2022-08-16T16:21:22.839Z,34.61
2022-08-16T16:23:29.912Z,34.70
2022-08-16T16:25:33.610Z,34.21
2022-08-16T16:27:35.829Z,33.85
2022-08-16T16:29:40.325Z,33.06
2022-08-16T16:31:43.881Z,33.92
2022-08-16T16:33:55.865Z,34.15
2022-08-16T16:36:00.222Z,34.51
2022-08-16T16:38:02.375Z,34.17
2022-08-16T16:40:12.789Z,33.96
2022-08-16T16:42:29.203Z,34.31
2022-08-16T16:44:36.186Z,34.56
2022-08-16T16:46:42.054Z,34.71
2022-08-16T16:48:45.543Z,34.44
2022-08-16T16:50:48.370Z,34.08
2022-08-16T16:52:55.576Z,34.36
2022-08-16T16:54:58.641Z,34.27
2022-08-16T16:57:00.919Z,35.07
2022-08-16T16:59:07.581Z,34.78
2022-08-16T17:01:12.651Z,34.85
2022-08-16T17:03:18.260Z,34.54
2022-08-16T17:05:26.224Z,34.36
2022-08-16T17:07:32.363Z,34.40
2022-08-16T17:09:34.890Z,34.69
2022-08-16T17:11:44.580Z,34.14
2022-08-16T17:13:46.176Z,34.19
2022-08-16T17:15:52.175Z,34.46
2022-08-16T17:17:59.693Z,34.23
2022-08-16T17:20:16.940Z,34.44
2022-08-16T17:22:21.867Z,34.89
2022-08-16T17:24:31.307Z,34.69
2022-08-16T17:26:41.653Z,34.83
2022-08-16T17:28:59.010Z,33.67
2022-08-16T17:31:02.799Z,33.48
2022-08-16T17:33:08.737Z,33.78
2022-08-16T17:35:18.167Z,34.43
2022-08-16T17:37:22.181Z,34.13
2022-08-16T17:39:59.842Z,34.34
2022-08-16T17:42:00.959Z,33.75
2022-08-16T17:44:04.227Z,34.18
2022-08-16T17:46:41.376Z,34.26
2022-08-16T17:48:35.475Z,34.46
2022-08-16T17:50:37.619Z,33.85
2022-08-16T17:52:48.593Z,34.06
2022-08-16T17:54:51.568Z,33.93
2022-08-16T17:56:53.979Z,33.15
2022-08-16T17:58:56.032Z,33.81
2022-08-16T18:00:59.868Z,33.11
2022-08-16T18:03:01.697Z,33.10
2022-08-16T18:05:04.943Z,33.36
2022-08-16T18:07:06.619Z,33.31
2022-08-16T18:09:10.435Z,33.04
2022-08-16T18:11:18.144Z,33.75
2022-08-16T18:13:19.768Z,33.63
2022-08-16T18:15:23.440Z,33.67
2022-08-16T18:17:25.911Z,33.79
2022-08-16T18:19:27.538Z,33.43
2022-08-16T18:21:47.963Z,32.66
2022-08-16T18:23:49.642Z,32.25
2022-08-16T18:25:55.644Z,32.51
2022-08-16T18:27:57.296Z,32.38
2022-08-16T18:29:59.099Z,32.59
2022-08-16T18:32:04.628Z,32.97
2022-08-16T18:34:06.289Z,32.60
2022-08-16T18:36:21.079Z,32.08
2022-08-16T18:38:23.269Z,31.97
2022-08-16T18:40:25.132Z,32.27
2022-08-16T18:42:26.803Z,32.41
2022-08-16T18:44:33.342Z,32.02
2022-08-16T18:46:38.775Z,32.49
2022-08-16T18:48:40.369Z,32.02
2022-08-16T18:51:03.208Z,31.88
2022-08-16T18:53:08.568Z,31.20
2022-08-16T18:55:14.025Z,30.90
2022-08-16T18:57:16.496Z,31.63
2022-08-16T18:59:18.432Z,31.98
2022-08-16T19:01:21.124Z,32.58
2022-08-16T19:03:27.072Z,32.70
2022-08-16T19:05:31.050Z,32.32
2022-08-16T19:07:32.667Z,32.32
2022-08-16T19:09:34.463Z,31.53
2022-08-16T19:11:36.206Z,31.77
2022-08-16T19:13:37.845Z,32.05
2022-08-16T19:15:42.522Z,31.75
2022-08-16T19:17:45.885Z,32.19
2022-08-16T19:19:47.473Z,32.34
2022-08-16T19:21:49.133Z,32.25
2022-08-16T19:23:50.752Z,31.71
2022-08-16T19:25:57.809Z,30.85
2022-08-16T19:28:01.010Z,30.10
2022-08-16T19:30:03.724Z,30.37
2022-08-16T19:32:19.763Z,30.94
2022-08-16T19:34:21.331Z,30.06
2022-08-16T19:36:31.306Z,30.78
2022-08-16T19:38:35.607Z,30.59
2022-08-16T19:40:38.624Z,31.46
2022-08-16T19:42:46.179Z,31.76
2022-08-16T19:44:50.477Z,32.11
2022-08-16T19:46:52.190Z,32.25
2022-08-16T19:48:53.904Z,32.22
2022-08-16T19:50:55.495Z,32.21
2022-08-16T19:53:18.397Z,32.00
2022-08-16T19:55:22.690Z,31.21
2022-08-16T19:57:24.770Z,31.17
2022-08-16T19:59:39.544Z,31.03
2022-08-16T20:01:43.906Z,30.57
2022-08-16T20:03:45.491Z,31.26
2022-08-16T20:05:51.045Z,31.49
2022-08-16T20:07:55.816Z,30.69
2022-08-16T20:10:04.007Z,30.33
2022-08-16T20:12:10.679Z,30.24
2022-08-16T20:14:24.100Z,30.19
2022-08-16T20:16:26.774Z,31.17
2022-08-16T20:18:28.378Z,31.38
2022-08-16T20:20:29.993Z,31.42
2022-08-16T20:22:53.093Z,31.20
2022-08-16T20:24:55.624Z,31.47
2022-08-16T20:26:57.624Z,31.12
2022-08-16T20:28:59.181Z,29.89
2022-08-16T20:31:01.513Z,30.20
2022-08-16T20:33:09.798Z,30.73
2022-08-16T20:35:13.864Z,31.11
2022-08-16T20:37:16.600Z,31.30
2022-08-16T20:39:18.249Z,31.33
2022-08-16T20:41:19.811Z,31.29
2022-08-16T20:43:21.497Z,31.29
2022-08-16T20:45:27.087Z,31.18
2022-08-16T20:47:29.320Z,31.22
2022-08-16T20:49:31.011Z,30.40
2022-08-16T20:51:32.653Z,30.15
2022-08-16T20:53:48.816Z,30.36
2022-08-16T20:55:50.446Z,30.20
2022-08-16T20:57:52.201Z,30.35
2022-08-16T20:59:53.806Z,30.36
2022-08-16T21:01:56.173Z,30.35
2022-08-16T21:03:59.795Z,29.40
2022-08-16T21:06:02.280Z,28.99
2022-08-16T21:08:27.902Z,28.98
2022-08-16T21:10:27.104Z,29.18
2022-08-16T21:12:29.178Z,29.95
2022-08-16T21:14:36.454Z,29.15
2022-08-16T21:16:40.857Z,28.99
2022-08-16T21:18:42.914Z,29.29
2022-08-16T21:20:44.599Z,29.98
2022-08-16T21:22:59.022Z,30.11
2022-08-16T21:25:00.689Z,30.09
2022-08-16T21:27:02.761Z,29.57
2022-08-16T21:29:05.205Z,29.59
2022-08-16T21:31:13.386Z,29.52
2022-08-16T21:33:17.181Z,29.32
2022-08-16T21:35:19.331Z,29.08
2022-08-16T21:37:20.988Z,28.84
2022-08-16T21:39:22.563Z,29.01
2022-08-16T21:41:24.512Z,28.60
2022-08-16T21:43:28.744Z,28.61
2022-08-16T21:45:30.360Z,28.91
2022-08-16T21:47:32.124Z,29.50
2022-08-16T21:49:33.754Z,29.43
2022-08-16T21:51:38.495Z,29.39
2022-08-16T21:53:41.636Z,28.75
2022-08-16T21:55:45.556Z,28.57
2022-08-16T21:57:47.200Z,29.02
2022-08-16T21:59:53.959Z,29.15
2022-08-16T22:01:55.763Z,29.29
2022-08-16T22:04:09.529Z,29.27
2022-08-16T22:06:19.385Z,29.37
2022-08-16T22:08:21.172Z,29.07
2022-08-16T22:11:07.183Z,28.85
2022-08-16T22:12:46.229Z,28.35
2022-08-16T22:14:48.703Z,28.31
2022-08-16T22:16:50.437Z,28.83
2022-08-16T22:18:52.767Z,29.07
2022-08-16T22:20:54.535Z,29.20
2022-08-16T22:23:14.929Z,29.19
2022-08-16T22:25:17.339Z,28.68
2022-08-16T22:27:18.895Z,28.88
2022-08-16T22:29:20.537Z,29.26
2022-08-16T22:31:22.168Z,29.05
2022-08-16T22:33:27.622Z,29.10
2022-08-16T22:35:29.262Z,29.03
2022-08-16T22:37:30.824Z,29.05
2022-08-16T22:39:32.477Z,28.65
2022-08-16T22:41:36.053Z,28.33
2022-08-16T22:43:38.076Z,28.48
2022-08-16T22:45:40.423Z,28.19
2022-08-16T22:47:42.573Z,28.62
2022-08-16T22:49:44.186Z,28.83
2022-08-16T22:51:46.197Z,28.27
2022-08-16T22:53:48.124Z,27.95
2022-08-16T22:55:49.947Z,27.91
2022-08-16T22:57:51.639Z,28.41
2022-08-16T22:59:53.267Z,27.90
2022-08-16T23:01:55.401Z,28.49
2022-08-16T23:03:57.322Z,28.69
2022-08-16T23:06:01.997Z,28.07
2022-08-16T23:08:05.572Z,28.09
2022-08-16T23:10:07.496Z,28.41
2022-08-16T23:12:09.530Z,28.57
2022-08-16T23:14:11.161Z,28.11
2022-08-16T23:16:13.615Z,28.53
2022-08-16T23:18:17.330Z,28.89
2022-08-16T23:20:22.725Z,29.04
2022-08-16T23:22:24.689Z,29.01
2022-08-16T23:24:27.475Z,28.08
2022-08-16T23:26:44.773Z,28.55
2022-08-16T23:28:49.803Z,28.07
2022-08-16T23:30:52.559Z,28.39
2022-08-16T23:32:59.511Z,28.22
2022-08-16T23:35:04.320Z,28.38
2022-08-16T23:37:06.691Z,27.96
2022-08-16T23:39:08.354Z,28.28
2022-08-16T23:41:12.213Z,27.60
2022-08-16T23:43:19.594Z,28.28
2022-08-16T23:45:21.557Z,27.95
2022-08-16T23:47:23.138Z,27.71
2022-08-16T23:50:00.471Z,27.80
2022-08-16T23:51:48.213Z,27.54
2022-08-16T23:53:50.206Z,27.66
2022-08-16T23:55:55.166Z,27.54
2022-08-16T23:57:57.597Z,27.20
2022-08-16T23:59:59.200Z,27.44
